Time;durP1;ratioP1;P1;durP2;ratioP2;P2;SDS_P1;SDS_P2;PMS_P1;PMS_P2;Temp;Humidity;BMP_temperature;BMP_pressure;BME280_temperature;BME280_humidity;BME280_pressure;Samples;Min_cycle;Max_cycle;Signal;HPM_P1;HPM_P2
2023/06/27 00:02:12;;;;;;;7.97;3.70;;;21.00;67.30;;;;;;4759131;30;20061;-91
2023/06/27 00:04:39;;;;;;;8.15;4.30;;;20.90;67.50;;;;;;4765331;30;20556;-91
2023/06/27 00:07:10;;;;;;;9.45;4.18;;;21.00;67.70;;;;;;4759082;30;20081;-91
2023/06/27 00:09:40;;;;;;;9.93;4.00;;;20.90;68.40;;;;;;4763712;30;20071;-91
2023/06/27 00:12:08;;;;;;;10.63;3.78;;;21.00;68.70;;;;;;4766420;30;20506;-91
2023/06/27 00:14:37;;;;;;;11.47;4.30;;;21.00;69.10;;;;;;4768650;30;20054;-91
2023/06/27 00:17:07;;;;;;;8.75;4.28;;;21.00;69.10;;;;;;4763282;30;20142;-92
2023/06/27 00:19:36;;;;;;;9.13;4.40;;;21.00;69.90;;;;;;4768060;30;20059;-91
2023/06/27 00:22:09;;;;;;;9.07;4.50;;;21.00;70.20;;;;;;4764524;30;20074;-91
2023/06/27 00:24:37;;;;;;;9.02;4.43;;;20.90;71.80;;;;;;4753482;30;20067;-91
2023/06/27 00:27:05;;;;;;;10.37;3.67;;;20.80;72.30;;;;;;4767590;30;20044;-91
2023/06/27 00:29:32;;;;;;;9.23;4.07;;;20.80;72.00;;;;;;4770065;30;20075;-91
2023/06/27 00:32:00;;;;;;;8.93;4.07;;;20.70;72.70;;;;;;4752477;30;20463;-91
2023/06/27 00:34:30;;;;;;;10.05;4.50;;;20.60;72.90;;;;;;4768522;30;20104;-91
2023/06/27 00:36:57;;;;;;;9.75;4.22;;;20.60;73.10;;;;;;4770284;30;20058;-91
2023/06/27 00:39:24;;;;;;;9.80;4.33;;;20.60;73.10;;;;;;4768290;30;20050;-91
2023/06/27 00:41:53;;;;;;;8.63;4.55;;;20.60;73.60;;;;;;4765671;30;20563;-91
2023/06/27 00:44:20;;;;;;;8.27;4.10;;;20.60;73.60;;;;;;4763323;30;20104;-89
2023/06/27 00:46:50;;;;;;;11.00;4.90;;;20.70;73.30;;;;;;4765287;30;20048;-91
2023/06/27 00:49:19;;;;;;;10.38;4.57;;;20.60;73.50;;;;;;4751999;30;20051;-91
2023/06/27 00:51:48;;;;;;;10.07;4.70;;;20.60;74.20;;;;;;4768317;30;20051;-90
2023/06/27 00:54:17;;;;;;;10.30;4.57;;;20.60;74.50;;;;;;4751736;30;20043;-91
2023/06/27 00:56:46;;;;;;;9.15;4.75;;;20.60;74.60;;;;;;4763813;30;20124;-91
2023/06/27 00:59:13;;;;;;;10.98;4.95;;;20.60;74.50;;;;;;4768909;30;20454;-91
2023/06/27 01:01:42;;;;;;;11.88;4.50;;;20.60;74.50;;;;;;4767899;30;20134;-90
2023/06/27 01:04:09;;;;;;;9.57;4.60;;;20.50;74.90;;;;;;4762525;30;20465;-91
2023/06/27 01:06:46;;;;;;;8.45;4.10;;;20.50;74.80;;;;;;4768188;30;20102;-91
2023/06/27 01:09:26;;;;;;;10.38;4.40;;;20.50;75.00;;;;;;4767373;30;20116;-90
2023/06/27 01:12:02;;;;;;;9.27;3.95;;;20.40;75.40;;;;;;4763593;30;20047;-91
2023/06/27 01:14:31;;;;;;;9.23;3.78;;;20.30;75.30;;;;;;4763794;30;20083;-91
2023/06/27 01:17:00;;;;;;;9.27;4.40;;;20.30;75.70;;;;;;4757922;30;20450;-91
2023/06/27 01:19:30;;;;;;;9.32;4.30;;;20.30;75.90;;;;;;4751208;30;20047;-90
2023/06/27 01:22:07;;;;;;;9.07;4.35;;;20.30;76.00;;;;;;4748168;30;20081;-90
2023/06/27 01:24:36;;;;;;;8.93;4.43;;;20.30;75.90;;;;;;4765745;30;20051;-90
2023/06/27 01:27:04;;;;;;;9.88;4.65;;;20.30;75.60;;;;;;4748143;30;20045;-90
2023/06/27 01:29:32;;;;;;;10.13;4.97;;;20.40;76.20;;;;;;4749892;30;20051;-90
2023/06/27 01:32:08;;;;;;;9.48;4.85;;;20.40;76.40;;;;;;4763074;30;20379;-91
2023/06/27 01:35:13;;;;;;;8.88;4.72;;;20.30;76.80;;;;;;4763926;30;20066;-90
2023/06/27 01:37:50;;;;;;;9.70;5.28;;;20.40;77.30;;;;;;4749402;30;20104;-90
2023/06/27 01:40:20;;;;;;;10.10;5.28;;;20.30;77.90;;;;;;4764794;30;20043;-90
2023/06/27 01:42:52;;;;;;;9.60;4.73;;;20.20;78.10;;;;;;4766486;30;20061;-90
2023/06/27 01:45:19;;;;;;;11.32;5.18;;;20.20;77.50;;;;;;4755489;30;20077;-90
2023/06/27 01:47:47;;;;;;;12.40;5.10;;;20.10;77.50;;;;;;4750137;30;20044;-90
2023/06/27 01:50:14;;;;;;;9.55;5.10;;;20.20;78.00;;;;;;4768440;30;20130;-91
2023/06/27 01:52:41;;;;;;;9.68;5.10;;;20.10;77.90;;;;;;4764277;30;20490;-91
2023/06/27 01:55:09;;;;;;;9.67;4.70;;;20.20;78.00;;;;;;4765090;30;20047;-91
2023/06/27 01:57:36;;;;;;;9.70;4.93;;;20.20;78.00;;;;;;4765364;30;20147;-91
2023/06/27 02:00:06;;;;;;;10.95;4.97;;;20.20;77.70;;;;;;4761661;30;20108;-91
2023/06/27 02:02:43;;;;;;;9.98;5.28;;;20.10;77.90;;;;;;4767675;30;20059;-91
2023/06/27 02:05:11;;;;;;;11.25;5.75;;;20.10;78.40;;;;;;4763262;30;20062;-91
2023/06/27 02:07:38;;;;;;;11.17;5.93;;;20.00;78.80;;;;;;4765829;30;20054;-91
2023/06/27 02:10:09;;;;;;;13.38;6.88;;;20.00;78.90;;;;;;4766853;30;20047;-91
2023/06/27 02:12:39;;;;;;;12.30;6.40;;;20.00;78.90;;;;;;4750226;30;20491;-91
2023/06/27 02:15:07;;;;;;;12.93;7.00;;;20.00;78.70;;;;;;4764780;30;20084;-91
2023/06/27 02:17:35;;;;;;;12.27;6.78;;;20.10;78.30;;;;;;4766521;30;20091;-91
2023/06/27 02:20:04;;;;;;;14.93;7.27;;;20.10;78.30;;;;;;4752903;30;20047;-91
2023/06/27 02:22:33;;;;;;;16.23;6.93;;;20.10;78.50;;;;;;4767320;30;20055;-91
2023/06/27 02:25:00;;;;;;;13.20;7.30;;;20.10;78.80;;;;;;4767628;30;20144;-91
2023/06/27 02:27:27;;;;;;;13.10;7.68;;;20.10;78.70;;;;;;4765467;30;20043;-90
2023/06/27 02:29:54;;;;;;;11.35;6.20;;;20.10;78.70;;;;;;4764419;30;20054;-91
2023/06/27 02:32:21;;;;;;;13.20;6.20;;;20.00;78.90;;;;;;4766293;30;20103;-91
2023/06/27 02:34:49;;;;;;;10.13;6.13;;;19.90;79.20;;;;;;4762209;30;20044;-91
2023/06/27 02:37:16;;;;;;;10.82;6.00;;;19.90;79.40;;;;;;4754211;30;20574;-91
2023/06/27 02:39:43;;;;;;;11.18;5.45;;;19.90;79.10;;;;;;4764832;30;20039;-91
2023/06/27 02:42:10;;;;;;;12.43;6.03;;;19.90;79.20;;;;;;4762793;30;20051;-91
2023/06/27 02:44:37;;;;;;;10.73;5.80;;;19.90;79.10;;;;;;4764290;30;20852;-91
2023/06/27 02:47:05;;;;;;;10.30;5.82;;;19.90;79.40;;;;;;4763377;30;20113;-91
2023/06/27 02:49:32;;;;;;;9.88;5.82;;;19.90;79.10;;;;;;4767210;30;20414;-91
2023/06/27 02:51:59;;;;;;;10.73;5.75;;;19.80;79.10;;;;;;4763452;30;20073;-91
2023/06/27 02:54:26;;;;;;;11.05;6.20;;;19.80;79.20;;;;;;4763553;30;20079;-90
2023/06/27 02:56:56;;;;;;;11.27;6.20;;;19.80;79.60;;;;;;4756872;30;20054;-91
2023/06/27 02:59:24;;;;;;;13.32;6.97;;;19.70;79.80;;;;;;4760432;30;20052;-91
2023/06/27 03:01:56;;;;;;;11.40;6.50;;;19.70;79.60;;;;;;4764420;30;20056;-90
2023/06/27 03:04:24;;;;;;;12.25;6.43;;;19.80;79.10;;;;;;4755603;30;20538;-90
2023/06/27 03:06:52;;;;;;;13.95;6.60;;;19.80;79.00;;;;;;4757738;30;20458;-90
2023/06/27 03:09:20;;;;;;;12.07;5.93;;;19.70;79.20;;;;;;4760108;30;20490;-90
2023/06/27 03:11:47;;;;;;;11.73;6.13;;;19.80;78.90;;;;;;4747475;30;20039;-90
2023/06/27 03:14:19;;;;;;;13.70;6.30;;;19.70;79.20;;;;;;4753282;30;20102;-90
2023/06/27 03:16:49;;;;;;;14.10;7.57;;;19.70;79.20;;;;;;4764251;30;20390;-90
2023/06/27 03:19:18;;;;;;;16.42;8.30;;;19.60;79.70;;;;;;4763782;30;20142;-90
2023/06/27 03:22:00;;;;;;;15.73;9.83;;;19.70;79.80;;;;;;4763298;30;20071;-90
2023/06/27 03:24:29;;;;;;;14.57;7.88;;;19.70;80.00;;;;;;4758739;30;20052;-89
2023/06/27 03:26:56;;;;;;;15.07;8.77;;;19.80;79.70;;;;;;4765446;30;20125;-89
2023/06/27 03:29:23;;;;;;;15.48;9.02;;;19.90;79.50;;;;;;4755155;30;20571;-88
2023/06/27 03:31:51;;;;;;;12.95;7.20;;;19.90;79.70;;;;;;4759825;30;20050;-89
2023/06/27 03:34:19;;;;;;;12.57;7.40;;;20.00;79.30;;;;;;4764140;30;20047;-89
2023/06/27 03:36:46;;;;;;;13.75;7.28;;;20.00;79.00;;;;;;4759530;30;20143;-89
2023/06/27 03:39:13;;;;;;;14.32;8.20;;;20.10;78.70;;;;;;4748250;30;20048;-89
2023/06/27 03:41:40;;;;;;;15.23;8.55;;;20.10;78.50;;;;;;4763375;30;20138;-90
2023/06/27 03:44:08;;;;;;;12.27;6.72;;;20.20;78.90;;;;;;4760422;30;20082;-89
2023/06/27 03:46:35;;;;;;;13.83;6.83;;;20.20;78.60;;;;;;4762278;30;20060;-89
2023/06/27 03:49:04;;;;;;;11.25;5.55;;;20.30;78.30;;;;;;4764908;30;20039;-89
2023/06/27 03:51:33;;;;;;;9.55;4.00;;;20.30;78.00;;;;;;4762347;30;20051;-89
2023/06/27 03:54:02;;;;;;;10.63;4.45;;;20.20;77.70;;;;;;4748097;30;20048;-88
2023/06/27 03:56:29;;;;;;;9.35;4.35;;;20.20;77.90;;;;;;4754567;30;20402;-88
2023/06/27 03:58:56;;;;;;;9.70;4.47;;;20.20;78.00;;;;;;4762162;30;20114;-89
2023/06/27 04:01:23;;;;;;;8.63;4.63;;;20.20;78.00;;;;;;4758248;30;20405;-88
2023/06/27 04:03:51;;;;;;;8.30;4.10;;;20.30;78.00;;;;;;4764685;30;20141;-88
2023/06/27 04:06:18;;;;;;;8.40;3.78;;;20.20;78.10;;;;;;4756672;30;20043;-88
2023/06/27 04:08:45;;;;;;;8.52;4.68;;;20.20;77.80;;;;;;4765507;30;20073;-88
2023/06/27 04:11:12;;;;;;;7.57;4.10;;;20.30;77.90;;;;;;4749225;30;20059;-89
2023/06/27 04:13:40;;;;;;;8.63;4.40;;;20.30;77.90;;;;;;4764050;30;20071;-89
2023/06/27 04:16:07;;;;;;;9.88;5.57;;;20.30;78.10;;;;;;4750479;30;20409;-88
2023/06/27 04:18:34;;;;;;;9.55;5.30;;;20.30;78.40;;;;;;4751631;30;20108;-88
2023/06/27 04:21:01;;;;;;;12.05;5.93;;;20.10;78.50;;;;;;4759874;30;20044;-88
2023/06/27 04:23:28;;;;;;;9.83;5.23;;;20.00;78.80;;;;;;4753101;30;20079;-89
2023/06/27 04:26:04;;;;;;;9.48;5.47;;;20.00;79.40;;;;;;4759622;30;20469;-88
2023/06/27 04:28:31;;;;;;;9.52;5.78;;;19.80;79.60;;;;;;4755520;30;20048;-88
2023/06/27 04:31:00;;;;;;;9.80;5.35;;;19.80;79.70;;;;;;4754011;30;20403;-88
2023/06/27 04:33:27;;;;;;;10.85;6.13;;;19.80;79.70;;;;;;4753790;30;20057;-88
2023/06/27 04:36:00;;;;;;;11.63;5.83;;;19.60;80.30;;;;;;4764112;30;20058;-89
2023/06/27 04:38:30;;;;;;;12.70;5.78;;;19.70;80.10;;;;;;4748508;30;20094;-88
2023/06/27 04:40:57;;;;;;;9.75;6.38;;;19.60;80.30;;;;;;4767345;30;20059;-88
2023/06/27 04:43:26;;;;;;;10.57;6.03;;;19.50;80.60;;;;;;4762548;30;20581;-88
2023/06/27 04:45:54;;;;;;;11.05;6.70;;;19.60;80.60;;;;;;4753618;30;20044;-88
2023/06/27 04:48:21;;;;;;;11.30;7.30;;;19.50;80.60;;;;;;4766250;30;20044;-89
2023/06/27 04:50:48;;;;;;;11.50;6.47;;;19.40;80.90;;;;;;4767581;30;20072;-89
2023/06/27 04:53:19;;;;;;;10.75;6.80;;;19.50;80.70;;;;;;4762296;30;20402;-90
2023/06/27 04:55:48;;;;;;;13.57;7.18;;;19.40;80.80;;;;;;4756649;30;20044;-90
2023/06/27 04:58:16;;;;;;;12.20;7.25;;;19.50;80.70;;;;;;4762287;30;20051;-90
2023/06/27 05:00:44;;;;;;;14.73;6.80;;;19.50;80.70;;;;;;4767974;30;20058;-91
2023/06/27 05:03:11;;;;;;;12.30;7.47;;;19.60;80.50;;;;;;4749799;30;20048;-89
2023/06/27 05:05:38;;;;;;;12.63;7.10;;;19.70;80.10;;;;;;4766567;30;20606;-89
2023/06/27 05:08:06;;;;;;;13.07;7.60;;;19.70;79.90;;;;;;4770663;30;20048;-90
2023/06/27 05:10:34;;;;;;;13.93;7.72;;;19.70;79.70;;;;;;4755986;30;20052;-89
2023/06/27 05:13:01;;;;;;;13.07;8.00;;;19.60;79.50;;;;;;4759764;30;20052;-89
2023/06/27 05:15:28;;;;;;;13.45;7.85;;;19.50;79.60;;;;;;4762556;30;20101;-89
2023/06/27 05:18:15;;;;;;;11.32;7.20;;;19.50;79.70;;;;;;4751457;30;20040;-89
2023/06/27 05:20:44;;;;;;;13.32;6.85;;;19.30;80.00;;;;;;4744745;30;20120;-89
2023/06/27 05:23:11;;;;;;;11.77;6.30;;;19.30;79.50;;;;;;4763565;30;20519;-89
2023/06/27 05:25:38;;;;;;;11.97;5.90;;;19.40;78.70;;;;;;4765140;30;20044;-89
2023/06/27 05:28:06;;;;;;;9.98;4.97;;;19.30;78.50;;;;;;4756024;30;20054;-89
2023/06/27 05:30:33;;;;;;;12.63;5.10;;;19.50;78.50;;;;;;4764321;30;20058;-89
2023/06/27 05:33:03;;;;;;;13.07;5.22;;;19.50;77.50;;;;;;4758097;30;20556;-89
2023/06/27 05:35:31;;;;;;;11.30;5.30;;;19.40;77.60;;;;;;4760563;30;20043;-89
2023/06/27 05:37:59;;;;;;;10.43;4.67;;;19.50;77.10;;;;;;4758283;30;20056;-89
2023/06/27 05:40:27;;;;;;;10.65;5.28;;;19.40;76.50;;;;;;4759451;30;20505;-89
2023/06/27 05:42:54;;;;;;;12.35;5.47;;;19.40;77.20;;;;;;4756904;30;20067;-89
2023/06/27 05:45:21;;;;;;;10.10;5.47;;;19.50;77.10;;;;;;4760890;30;20079;-89
2023/06/27 05:47:48;;;;;;;9.95;4.80;;;19.50;76.30;;;;;;4761619;30;20044;-89
2023/06/27 05:50:15;;;;;;;11.40;5.10;;;19.40;76.30;;;;;;4756744;30;20047;-89
2023/06/27 05:52:42;;;;;;;10.95;5.13;;;19.40;76.70;;;;;;4744130;30;20154;-89
2023/06/27 05:55:09;;;;;;;15.02;5.00;;;19.30;76.50;;;;;;4758619;30;20635;-89
2023/06/27 05:57:36;;;;;;;10.32;4.95;;;19.30;76.20;;;;;;4755794;30;20146;-89
2023/06/27 06:00:06;;;;;;;11.57;5.03;;;19.30;75.70;;;;;;4759466;30;20113;-89
2023/06/27 06:02:38;;;;;;;10.50;4.40;;;19.30;75.80;;;;;;4760114;30;20051;-89
2023/06/27 06:05:07;;;;;;;9.52;4.55;;;19.40;75.80;;;;;;4757489;30;20067;-90
2023/06/27 06:07:34;;;;;;;9.43;4.70;;;19.50;75.30;;;;;;4762162;30;20115;-89
2023/06/27 06:10:02;;;;;;;10.85;4.88;;;19.30;75.70;;;;;;4762572;30;20055;-89
2023/06/27 06:12:29;;;;;;;14.38;5.10;;;19.20;75.60;;;;;;4746075;30;20078;-89
2023/06/27 06:14:56;;;;;;;14.23;5.00;;;19.20;75.90;;;;;;4757112;30;20063;-89
2023/06/27 06:17:23;;;;;;;13.55;5.13;;;19.10;75.50;;;;;;4755533;30;20063;-89
2023/06/27 06:19:50;;;;;;;12.25;4.65;;;19.00;76.00;;;;;;4765482;30;20452;-89
2023/06/27 06:22:18;;;;;;;11.25;5.00;;;19.10;75.60;;;;;;4758130;30;20059;-90
2023/06/27 06:24:45;;;;;;;13.80;5.38;;;19.30;75.30;;;;;;4763704;30;20514;-89
2023/06/27 06:27:12;;;;;;;12.17;5.23;;;19.40;74.70;;;;;;4756842;30;20123;-90
2023/06/27 06:29:39;;;;;;;13.52;5.68;;;19.50;73.80;;;;;;4762959;30;20052;-88
2023/06/27 06:32:06;;;;;;;10.88;5.85;;;19.60;73.90;;;;;;4761564;30;20044;-89
2023/06/27 06:34:34;;;;;;;12.95;5.00;;;19.60;73.50;;;;;;4745295;30;20059;-90
2023/06/27 06:37:01;;;;;;;11.55;5.47;;;19.60;73.30;;;;;;4759897;30;20507;-89
2023/06/27 06:39:28;;;;;;;11.23;5.27;;;19.50;73.40;;;;;;4762454;30;20058;-89
2023/06/27 06:41:55;;;;;;;12.82;5.45;;;19.50;73.50;;;;;;4762661;30;20047;-89
2023/06/27 06:44:24;;;;;;;11.63;4.78;;;19.60;73.30;;;;;;4763309;30;20054;-89
2023/06/27 06:46:51;;;;;;;14.38;5.50;;;19.50;73.10;;;;;;4761635;30;20043;-89
2023/06/27 06:49:18;;;;;;;13.02;5.05;;;19.50;73.20;;;;;;4764908;30;20090;-89
2023/06/27 06:51:46;;;;;;;14.23;5.60;;;19.50;73.90;;;;;;4756243;30;20044;-90
2023/06/27 06:54:13;;;;;;;10.55;5.57;;;19.60;73.30;;;;;;4764319;30;20054;-89
2023/06/27 06:56:40;;;;;;;13.43;6.43;;;19.60;73.30;;;;;;4754652;30;20135;-90
2023/06/27 06:59:07;;;;;;;12.48;6.88;;;19.60;72.90;;;;;;4759632;30;20117;-90
2023/06/27 07:01:34;;;;;;;13.25;6.53;;;19.50;73.00;;;;;;4758943;30;20070;-89
2023/06/27 07:04:02;;;;;;;10.83;6.27;;;19.50;73.10;;;;;;4745563;30;20070;-90
2023/06/27 07:06:29;;;;;;;11.90;6.07;;;19.40;73.90;;;;;;4760834;30;20043;-89
2023/06/27 07:08:56;;;;;;;13.02;6.50;;;19.30;73.90;;;;;;4764733;30;20071;-89
2023/06/27 07:11:23;;;;;;;12.30;6.78;;;19.40;74.00;;;;;;4751518;30;20149;-90
2023/06/27 07:13:50;;;;;;;12.27;6.47;;;19.40;74.20;;;;;;4759942;30;20587;-90
2023/06/27 07:16:17;;;;;;;12.23;6.10;;;19.40;74.30;;;;;;4759250;30;20466;-90
2023/06/27 07:18:45;;;;;;;11.77;6.50;;;19.50;74.00;;;;;;4749503;30;20048;-89
2023/06/27 07:21:12;;;;;;;12.77;6.10;;;19.70;74.10;;;;;;4757536;30;20048;-90
2023/06/27 07:23:39;;;;;;;11.32;7.15;;;19.80;73.60;;;;;;4768550;30;20054;-89
2023/06/27 07:26:06;;;;;;;13.75;5.97;;;19.70;73.30;;;;;;4757527;30;20052;-90
2023/06/27 07:28:33;;;;;;;11.23;6.30;;;19.70;73.50;;;;;;4752305;30;20582;-90
2023/06/27 07:31:00;;;;;;;11.15;5.78;;;19.70;73.20;;;;;;4745569;30;20055;-90
2023/06/27 07:33:28;;;;;;;12.98;6.32;;;19.60;73.20;;;;;;4763270;30;20502;-89
2023/06/27 07:35:55;;;;;;;12.20;6.18;;;19.50;73.60;;;;;;4759948;30;20051;-90
2023/06/27 07:38:23;;;;;;;12.20;6.85;;;19.50;74.20;;;;;;4763937;30;20526;-90
2023/06/27 07:40:51;;;;;;;12.07;6.70;;;19.60;74.30;;;;;;4754513;30;20085;-89
2023/06/27 07:43:22;;;;;;;13.57;6.90;;;19.60;74.10;;;;;;4755108;30;20138;-90
2023/06/27 07:45:49;;;;;;;12.10;6.07;;;19.50;74.40;;;;;;4756646;30;20102;-90
2023/06/27 07:48:17;;;;;;;12.55;6.07;;;19.50;74.50;;;;;;4757448;30;20048;-90
2023/06/27 07:50:44;;;;;;;12.35;5.22;;;19.40;75.20;;;;;;4761733;30;20398;-89
2023/06/27 07:53:11;;;;;;;12.40;5.00;;;19.20;74.50;;;;;;4773526;30;20048;-90
2023/06/27 07:55:38;;;;;;;11.15;4.50;;;19.20;74.10;;;;;;4768121;30;20058;-89
2023/06/27 07:58:05;;;;;;;14.73;4.50;;;19.20;73.00;;;;;;4747517;30;20551;-90
2023/06/27 08:00:33;;;;;;;10.95;4.20;;;19.30;73.40;;;;;;4747458;30;20051;-90
2023/06/27 08:03:00;;;;;;;10.85;4.13;;;19.50;71.70;;;;;;4761864;30;20078;-89
2023/06/27 08:05:31;;;;;;;11.23;4.03;;;19.40;70.50;;;;;;4755199;30;20133;-89
2023/06/27 08:07:59;;;;;;;8.32;3.80;;;19.30;70.80;;;;;;4743624;30;20097;-90
2023/06/27 08:10:27;;;;;;;13.27;4.25;;;19.40;71.30;;;;;;4758767;30;20047;-90
2023/06/27 08:12:55;;;;;;;9.05;3.63;;;19.40;70.90;;;;;;4759756;30;20052;-90
2023/06/27 08:15:22;;;;;;;8.80;3.42;;;19.40;70.90;;;;;;4762238;30;20112;-89
2023/06/27 08:17:49;;;;;;;7.93;3.50;;;19.50;71.40;;;;;;4763379;30;20126;-89
2023/06/27 08:20:16;;;;;;;7.75;3.63;;;19.50;70.20;;;;;;4759213;30;20052;-89
2023/06/27 08:22:44;;;;;;;11.43;3.70;;;19.40;68.90;;;;;;4760616;30;20577;-89
2023/06/27 08:25:11;;;;;;;10.68;3.47;;;19.30;68.70;;;;;;4755007;30;20051;-90
2023/06/27 08:27:40;;;;;;;8.70;3.30;;;19.30;68.90;;;;;;4755910;30;20071;-89
2023/06/27 08:30:08;;;;;;;7.63;3.50;;;19.30;69.10;;;;;;4758224;30;20052;-90
2023/06/27 08:32:35;;;;;;;7.90;3.05;;;19.40;69.10;;;;;;4751006;30;20075;-90
2023/06/27 08:35:05;;;;;;;10.75;3.40;;;19.40;68.70;;;;;;4743645;30;20043;-89
2023/06/27 08:37:33;;;;;;;8.07;2.50;;;19.50;68.70;;;;;;4766162;30;20413;-89
2023/06/27 08:40:00;;;;;;;7.70;3.05;;;19.50;67.50;;;;;;4746127;30;20056;-89
2023/06/27 08:42:31;;;;;;;6.97;2.97;;;19.60;67.20;;;;;;4764225;30;20043;-90
2023/06/27 08:44:59;;;;;;;10.07;3.13;;;19.70;66.70;;;;;;4756964;30;20055;-89
2023/06/27 08:47:29;;;;;;;9.10;2.78;;;19.60;67.90;;;;;;4746774;30;20048;-90
2023/06/27 08:50:03;;;;;;;7.15;2.97;;;19.60;67.60;;;;;;4763290;30;20070;-90
2023/06/27 08:52:38;;;;;;;9.50;3.03;;;19.60;68.40;;;;;;4764603;30;20086;-90
2023/06/27 08:55:10;;;;;;;9.67;3.07;;;19.50;67.50;;;;;;4764797;30;20047;-90
2023/06/27 08:57:38;;;;;;;9.88;3.05;;;19.50;68.50;;;;;;4753692;30;20137;-90
2023/06/27 09:00:12;;;;;;;8.23;3.08;;;19.30;68.20;;;;;;4773760;30;20059;-89
2023/06/27 09:02:42;;;;;;;11.88;3.47;;;19.10;68.40;;;;;;4757425;30;20055;-90
2023/06/27 09:05:09;;;;;;;8.40;3.00;;;19.10;69.20;;;;;;4755602;30;20403;-90
2023/06/27 09:07:37;;;;;;;7.97;2.90;;;19.20;68.80;;;;;;4767431;30;20056;-90
2023/06/27 09:10:05;;;;;;;6.40;2.38;;;19.10;67.90;;;;;;4747717;30;20083;-90
2023/06/27 09:12:33;;;;;;;7.50;2.50;;;19.10;67.10;;;;;;4745492;30;20453;-90
2023/06/27 09:15:00;;;;;;;10.00;2.30;;;19.10;67.00;;;;;;4744029;30;20066;-90
2023/06/27 09:17:27;;;;;;;6.65;1.88;;;19.20;66.10;;;;;;4759425;30;20128;-90
2023/06/27 09:19:54;;;;;;;8.03;2.50;;;19.30;65.30;;;;;;4766523;30;20518;-90
2023/06/27 09:22:23;;;;;;;6.03;2.03;;;19.20;65.40;;;;;;4767905;30;20474;-90
2023/06/27 09:25:16;;;;;;;7.00;2.60;;;19.10;65.70;;;;;;4758408;30;20414;-90
2023/06/27 09:27:43;;;;;;;9.35;2.40;;;19.10;65.40;;;;;;4765844;30;20071;-91
2023/06/27 09:30:13;;;;;;;6.82;2.03;;;19.10;65.70;;;;;;4756586;30;20107;-90
2023/06/27 09:32:56;;;;;;;6.23;2.17;;;19.20;65.20;;;;;;4759729;30;20052;-90
2023/06/27 09:35:25;;;;;;;6.88;2.45;;;19.10;64.70;;;;;;4767484;30;20044;-90
2023/06/27 09:38:12;;;;;;;6.18;2.28;;;19.00;65.40;;;;;;4758335;30;20051;-90
2023/06/27 09:40:42;;;;;;;4.72;2.08;;;19.00;65.90;;;;;;4767656;30;20518;-90
2023/06/27 09:43:11;;;;;;;10.85;2.70;;;18.90;65.70;;;;;;4757966;30;20048;-90
2023/06/27 09:45:39;;;;;;;6.63;2.33;;;19.00;66.20;;;;;;4761219;30;20062;-90
2023/06/27 09:48:10;;;;;;;6.65;2.30;;;19.10;66.20;;;;;;4756675;30;20101;-90
2023/06/27 09:50:39;;;;;;;9.63;2.00;;;19.30;64.30;;;;;;4749006;30;20063;-90
2023/06/27 09:53:07;;;;;;;7.57;2.05;;;19.40;63.80;;;;;;4767583;30;20104;-90
2023/06/27 09:55:35;;;;;;;5.63;1.77;;;19.60;63.40;;;;;;4755687;30;20054;-90
2023/06/27 09:58:04;;;;;;;9.30;3.03;;;19.70;62.20;;;;;;4760812;30;20060;-90
2023/06/27 10:00:31;;;;;;;5.57;1.60;;;19.80;63.30;;;;;;4767585;30;20460;-90
2023/06/27 10:02:58;;;;;;;7.38;1.90;;;19.90;62.00;;;;;;4755237;30;20051;-90
2023/06/27 10:05:25;;;;;;;8.80;1.75;;;19.80;61.50;;;;;;4761711;30;20159;-90
2023/06/27 10:07:57;;;;;;;7.00;2.55;;;19.70;60.80;;;;;;4767110;30;20062;-90
2023/06/27 10:10:26;;;;;;;5.23;2.10;;;19.60;60.70;;;;;;4765512;30;20130;-90
2023/06/27 10:12:54;;;;;;;5.80;2.28;;;19.60;60.20;;;;;;4769326;30;20459;-89
2023/06/27 10:15:21;;;;;;;6.85;2.33;;;19.50;61.90;;;;;;4748176;30;20044;-90
2023/06/27 10:17:48;;;;;;;5.15;1.98;;;19.50;61.20;;;;;;4762646;30;20110;-90
2023/06/27 10:20:15;;;;;;;7.28;2.63;;;19.40;61.30;;;;;;4758053;30;20043;-90
2023/06/27 10:22:45;;;;;;;7.73;2.63;;;19.40;61.50;;;;;;4757919;30;20055;-90
2023/06/27 10:25:12;;;;;;;5.28;2.30;;;19.50;61.60;;;;;;4750314;30;20055;-90
2023/06/27 10:27:42;;;;;;;7.28;2.90;;;19.60;61.80;;;;;;4765734;30;20071;-90
2023/06/27 10:30:26;;;;;;;6.20;2.63;;;19.80;61.00;;;;;;4765426;30;20511;-90
2023/06/27 10:33:19;;;;;;;6.78;2.38;;;20.10;62.20;;;;;;4764252;30;20126;-90
2023/06/27 10:35:51;;;;;;;6.50;2.60;;;20.30;60.90;;;;;;4757470;30;20109;-90
2023/06/27 10:38:18;;;;;;;6.05;2.47;;;20.50;60.20;;;;;;4754902;30;20064;-90
2023/06/27 10:40:58;;;;;;;6.43;2.70;;;20.60;59.40;;;;;;4778906;30;20449;-90
2023/06/27 10:43:46;;;;;;;5.32;2.30;;;20.70;58.60;;;;;;4777722;30;20118;-89
2023/06/27 10:46:28;;;;;;;5.22;2.33;;;20.80;59.70;;;;;;4767886;30;20134;-90
2023/06/27 10:49:06;;;;;;;6.23;2.30;;;20.80;59.40;;;;;;4746297;30;20050;-90
2023/06/27 10:51:42;;;;;;;5.63;2.40;;;21.00;58.80;;;;;;4760202;30;20062;-90
2023/06/27 10:54:10;;;;;;;6.88;2.92;;;21.10;59.70;;;;;;4766667;30;20055;-90
2023/06/27 10:56:39;;;;;;;6.40;2.50;;;21.20;59.40;;;;;;4763639;30;20048;-90
2023/06/27 10:59:13;;;;;;;12.73;3.40;;;21.40;58.90;;;;;;4758270;30;20114;-90
2023/06/27 11:01:43;;;;;;;5.70;2.07;;;21.40;57.40;;;;;;4755070;30;20055;-90
2023/06/27 11:04:20;;;;;;;6.70;2.35;;;21.30;56.70;;;;;;4758776;30;20125;-90
2023/06/27 11:06:48;;;;;;;6.22;2.60;;;21.10;54.90;;;;;;4767220;30;20055;-90
2023/06/27 11:09:18;;;;;;;4.95;2.13;;;20.90;56.10;;;;;;4752723;30;20040;-90
2023/06/27 11:12:08;;;;;;;5.97;1.88;;;20.90;57.00;;;;;;4754279;30;20116;-90
2023/06/27 11:14:40;;;;;;;11.50;2.30;;;20.90;56.70;;;;;;4758045;30;20524;-90
2023/06/27 11:17:07;;;;;;;7.00;2.20;;;21.00;55.30;;;;;;4759054;30;20055;-90
2023/06/27 11:19:36;;;;;;;7.72;1.90;;;21.00;55.60;;;;;;4755875;30;20051;-90
2023/06/27 11:22:05;;;;;;;6.63;2.10;;;21.00;55.50;;;;;;4754681;30;20051;-90
2023/06/27 11:24:32;;;;;;;6.75;2.17;;;21.10;55.50;;;;;;4754004;30;20058;-90
2023/06/27 11:27:05;;;;;;;6.10;2.10;;;21.10;54.80;;;;;;4763828;30;20044;-90
2023/06/27 11:29:36;;;;;;;5.82;2.45;;;21.10;55.40;;;;;;4760804;30;20400;-90
2023/06/27 11:32:03;;;;;;;5.20;2.25;;;21.20;55.20;;;;;;4758117;30;20126;-89
2023/06/27 11:34:31;;;;;;;6.18;2.28;;;21.40;56.10;;;;;;4764985;30;20044;-90
2023/06/27 11:36:58;;;;;;;5.78;2.60;;;21.60;55.60;;;;;;4756904;30;20048;-90
2023/06/27 11:39:25;;;;;;;9.30;2.70;;;21.50;53.30;;;;;;4761337;30;20051;-90
2023/06/27 11:41:54;;;;;;;6.57;2.45;;;21.40;54.00;;;;;;4765614;30;20059;-90
2023/06/27 11:44:29;;;;;;;5.63;2.30;;;21.40;54.60;;;;;;4756443;30;20147;-90
2023/06/27 11:47:00;;;;;;;5.32;2.20;;;21.50;54.50;;;;;;4767766;30;20059;-90
2023/06/27 11:49:27;;;;;;;8.68;2.45;;;21.30;55.70;;;;;;4770659;30;20031;-89
2023/06/27 11:51:58;;;;;;;5.27;2.00;;;21.30;55.00;;;;;;4764444;30;20047;-90
2023/06/27 11:54:25;;;;;;;6.15;2.03;;;21.30;55.70;;;;;;4764057;30;20047;-90
2023/06/27 11:57:00;;;;;;;6.80;2.45;;;21.10;55.90;;;;;;4761724;30;20044;-90
2023/06/27 11:59:31;;;;;;;7.43;2.15;;;20.90;54.40;;;;;;4762450;30;20040;-90
2023/06/27 12:01:58;;;;;;;6.55;2.10;;;20.70;56.60;;;;;;4758753;30;20054;-90
2023/06/27 12:04:26;;;;;;;6.60;2.10;;;20.50;57.20;;;;;;4750914;30;20149;-90
2023/06/27 12:06:53;;;;;;;7.28;2.45;;;20.30;57.90;;;;;;4765837;30;20513;-90
2023/06/27 12:09:26;;;;;;;7.35;2.80;;;20.10;58.90;;;;;;4765299;30;20143;-90
2023/06/27 12:11:59;;;;;;;6.78;2.75;;;20.00;61.50;;;;;;4769026;30;20112;-90
2023/06/27 12:14:28;;;;;;;9.63;3.33;;;19.80;63.00;;;;;;4748933;30;20089;-90
2023/06/27 12:16:55;;;;;;;11.77;2.30;;;19.50;64.20;;;;;;4751583;30;20055;-90
2023/06/27 12:19:23;;;;;;;5.30;2.50;;;19.40;62.00;;;;;;4760197;30;20173;-90
2023/06/27 12:21:53;;;;;;;8.63;2.65;;;19.20;63.10;;;;;;4754250;30;20083;-90
2023/06/27 12:24:21;;;;;;;13.65;2.90;;;19.10;64.50;;;;;;4760962;30;20055;-90
2023/06/27 12:26:48;;;;;;;8.00;3.20;;;19.00;65.90;;;;;;4765540;30;20137;-89
2023/06/27 12:29:15;;;;;;;8.17;3.00;;;19.00;66.90;;;;;;4770584;30;20051;-90
2023/06/27 12:31:46;;;;;;;8.40;2.78;;;19.00;68.50;;;;;;4765809;30;20123;-90
2023/06/27 12:34:13;;;;;;;8.90;3.17;;;19.00;68.20;;;;;;4747392;30;20455;-90
2023/06/27 12:36:40;;;;;;;12.05;3.60;;;19.00;69.30;;;;;;4761508;30;20057;-89
2023/06/27 12:39:07;;;;;;;10.93;3.75;;;18.90;70.30;;;;;;4766988;30;20448;-89
2023/06/27 12:41:35;;;;;;;9.43;3.47;;;18.80;70.30;;;;;;4760291;30;20047;-89
2023/06/27 12:44:02;;;;;;;8.35;3.30;;;18.80;71.60;;;;;;4745768;30;20103;-89
2023/06/27 12:46:31;;;;;;;10.13;3.13;;;18.80;70.20;;;;;;4763766;30;20055;-89
2023/06/27 12:48:58;;;;;;;8.52;3.45;;;18.60;71.20;;;;;;4766328;30;20051;-89
2023/06/27 12:51:25;;;;;;;8.93;3.38;;;18.50;71.40;;;;;;4763598;30;20410;-88